Kennydale, Washington
Current Conditions -  °F | °C
As of 5:53 AM on Saturday 20 Dec 2014 (Local Time) from KRNT Reporting Station
Light Rain Light Rain  
Wind Chill: 44°   Ceiling: 4800
Heat Index: 46°   Visibility: 7mi
Dew Point: 42°   Wind: 5mph
Humidity: 86%   Direction: NA
Pressure: 29.67"   Gusts: NA
Location:  47.5152°N, 122.184°W
Report Text: KRNT 201353Z AUTO VRB04KT 7SM -RA OVC048 08/06 A2967 RMK AO2 SLP053 P0001 T00780056
Loading
Personal Weather Stations






























Interactive Weather Map New forecast layout! Learn more

10-Day Weather Forecast

Advertisements
Track Severe Weather on mobile